No particular awareness of the weather is required.    There are no Weather-warnings


Meteo18 Weather Cam more information Meteo18 Weather Cam


Thunder radar more information blitzortung!


Rain radar more information rain snow radar


Visit our other weather sites:

Template documentation
and downloads

And another site



Weather Underground History page Text

Daily Summary for October 3, 2017 Units:  Metric    English   Both
« Previous Day
Next Day »
Daily Weekly Monthly Yearly Custom
  High: Low: Average:
Temperature: 17.5 °C 9.4 °C 14.8 °C
Dew Point: 16.9 °C 7.8 °C 11.7 °C
Humidity: 96 % 58 % 83 %
Wind Speed: 19.3 km/h 0.0 km/h 6.6 km/h
Wind Gust: 33.8 km/h - -
Wind:- - SSW
Pressure: 1028.3 hPa 1018.8 hPa -
Precipitation: 5.1 mm    
Historical Graphs
 
 
Tabular Data for October 3, 2017
Time Temperature Dew Point Pressure Wind Wind Speed Wind Gust Humidity Rainfall Rate (Hourly)
00:02 17.4 °C 16.8 °C 1020.9 hPa WNW 4.8 km/h 27.4 km/h 96 % 0.0 mm
00:12 17.4 °C 16.8 °C 1020.9 hPa WSW 14.5 km/h 19.3 km/h 96 % 0.0 mm
00:17 17.4 °C 16.8 °C 1020.9 hPa West 14.5 km/h 20.9 km/h 96 % 0.0 mm
00:22 17.4 °C 16.8 °C 1020.5 hPa West 9.7 km/h 22.5 km/h 96 % 0.0 mm
00:32 17.5 °C 16.7 °C 1020.5 hPa WSW 4.8 km/h 22.5 km/h 95 % 0.0 mm
00:42 17.5 °C 16.7 °C 1020.5 hPa WSW 8.0 km/h 20.9 km/h 95 % 0.0 mm
00:47 17.4 °C 16.8 °C 1020.5 hPa WSW 4.8 km/h 17.7 km/h 96 % 0.0 mm
00:52 17.5 °C 16.9 °C 1020.5 hPa WSW 9.7 km/h 20.9 km/h 96 % 0.0 mm
00:57 17.4 °C 16.8 °C 1020.5 hPa WSW 6.4 km/h 20.9 km/h 96 % 0.0 mm
01:02 17.4 °C 16.8 °C 1020.5 hPa WSW 4.8 km/h 24.1 km/h 96 % 0.0 mm
01:07 17.4 °C 16.8 °C 1020.5 hPa SSW 9.7 km/h 24.1 km/h 96 % 0.0 mm
01:12 17.4 °C 16.8 °C 1020.2 hPa West 4.8 km/h 24.1 km/h 96 % 0.0 mm
01:17 17.4 °C 16.8 °C 1020.2 hPa West 8.0 km/h 17.7 km/h 96 % 0.0 mm
01:22 17.4 °C 16.8 °C 1020.2 hPa WSW 8.0 km/h 16.1 km/h 96 % 0.3 mm
01:27 17.4 °C 16.8 °C 1020.2 hPa West 8.0 km/h 20.9 km/h 96 % 0.3 mm
01:32 17.4 °C 16.8 °C 1020.2 hPa WSW 11.3 km/h 20.9 km/h 96 % 0.3 mm
01:37 17.4 °C 16.8 °C 1020.2 hPa West 8.0 km/h 20.9 km/h 96 % 0.3 mm
01:42 17.4 °C 16.8 °C 1020.2 hPa SW 6.4 km/h 20.9 km/h 96 % 0.3 mm
01:47 17.4 °C 16.8 °C 1019.9 hPa SW 6.4 km/h 25.7 km/h 96 % 0.3 mm
01:52 17.4 °C 16.8 °C 1019.9 hPa WSW 9.7 km/h 25.7 km/h 96 % 0.3 mm
01:57 17.4 °C 16.8 °C 1019.9 hPa SW 14.5 km/h 25.7 km/h 96 % 0.3 mm
02:02 17.4 °C 16.8 °C 1019.9 hPa WSW 9.7 km/h 19.3 km/h 96 % 0.3 mm
02:12 17.4 °C 16.8 °C 1019.9 hPa SW 9.7 km/h 24.1 km/h 96 % 0.3 mm
02:17 17.4 °C 16.8 °C 1019.9 hPa WSW 8.0 km/h 24.1 km/h 96 % 0.0 mm
02:22 17.4 °C 16.8 °C 1019.9 hPa West 11.3 km/h 29.0 km/h 96 % 0.0 mm
02:27 17.4 °C 16.6 °C 1019.9 hPa SW 14.5 km/h 29.0 km/h 95 % 0.0 mm
02:32 17.5 °C 16.7 °C 1019.5 hPa SW 8.0 km/h 29.0 km/h 95 % 0.3 mm
02:37 17.4 °C 16.6 °C 1019.5 hPa WSW 6.4 km/h 24.1 km/h 95 % 0.3 mm
02:42 17.4 °C 16.6 °C 1019.5 hPa WSW 8.0 km/h 22.5 km/h 95 % 0.3 mm
02:47 17.4 °C 16.6 °C 1019.5 hPa WSW 17.7 km/h 25.7 km/h 95 % 0.3 mm
02:52 17.4 °C 16.6 °C 1019.5 hPa West 8.0 km/h 25.7 km/h 95 % 0.3 mm
02:57 17.4 °C 16.6 °C 1019.5 hPa West 11.3 km/h 25.7 km/h 95 % 0.3 mm
03:02 17.4 °C 16.6 °C 1019.5 hPa SW 17.7 km/h 24.1 km/h 95 % 0.3 mm
03:07 17.4 °C 16.6 °C 1019.5 hPa West 19.3 km/h 24.1 km/h 95 % 0.3 mm
03:12 17.4 °C 16.6 °C 1019.5 hPa WSW 9.7 km/h 24.1 km/h 95 % 0.3 mm
03:17 17.3 °C 16.5 °C 1019.5 hPa West 8.0 km/h 24.1 km/h 95 % 0.3 mm
03:22 17.3 °C 16.5 °C 1019.5 hPa WSW 16.1 km/h 24.1 km/h 95 % 0.3 mm
03:32 17.4 °C 16.6 °C 1019.5 hPa West 11.3 km/h 24.1 km/h 95 % 0.0 mm
03:37 17.4 °C 16.6 °C 1019.5 hPa WNW 6.4 km/h 22.5 km/h 95 % 0.0 mm
03:42 17.4 °C 16.6 °C 1019.5 hPa SW 9.7 km/h 22.5 km/h 95 % 0.0 mm
03:47 17.4 °C 16.6 °C 1019.5 hPa West 16.1 km/h 22.5 km/h 95 % 0.3 mm
03:52 17.4 °C 16.4 °C 1019.5 hPa West 14.5 km/h 22.5 km/h 94 % 0.3 mm
03:57 17.4 °C 16.4 °C 1019.2 hPa West 12.9 km/h 22.5 km/h 94 % 0.3 mm
04:02 17.4 °C 16.4 °C 1019.2 hPa WNW 9.7 km/h 22.5 km/h 94 % 0.3 mm
04:12 17.3 °C 16.5 °C 1019.2 hPa SW 16.1 km/h 20.9 km/h 95 % 0.3 mm
04:17 17.4 °C 16.6 °C 1019.2 hPa WSW 9.7 km/h 20.9 km/h 95 % 0.3 mm
04:22 17.4 °C 16.6 °C 1019.2 hPa SW 11.3 km/h 20.9 km/h 95 % 0.3 mm
04:27 17.3 °C 16.5 °C 1019.2 hPa WSW 4.8 km/h 19.3 km/h 95 % 0.3 mm
04:32 17.3 °C 16.5 °C 1019.2 hPa WSW 4.8 km/h 19.3 km/h 95 % 0.3 mm
04:37 17.3 °C 16.5 °C 1019.2 hPa West 12.9 km/h 16.1 km/h 95 % 0.3 mm
04:42 17.3 °C 16.5 °C 1019.2 hPa West 8.0 km/h 16.1 km/h 95 % 0.3 mm
04:47 17.3 °C 16.5 °C 1019.2 hPa WSW 9.7 km/h 19.3 km/h 95 % 0.0 mm
04:52 17.3 °C 16.5 °C 1019.2 hPa West 12.9 km/h 19.3 km/h 95 % 0.0 mm
04:57 17.4 °C 16.6 °C 1019.2 hPa WSW 6.4 km/h 20.9 km/h 95 % 0.3 mm
05:02 17.4 °C 16.6 °C 1019.2 hPa West 6.4 km/h 20.9 km/h 95 % 0.3 mm
05:22 17.4 °C 16.4 °C 1019.2 hPa WSW 8.0 km/h 19.3 km/h 94 % 0.3 mm
05:42 17.3 °C 16.5 °C 1018.8 hPa WSW 4.8 km/h 14.5 km/h 95 % 0.5 mm
05:47 17.3 °C 16.5 °C 1018.8 hPa West 11.3 km/h 14.5 km/h 95 % 0.8 mm
05:52 17.2 °C 16.4 °C 1018.8 hPa WSW 11.3 km/h 14.5 km/h 95 % 1.0 mm
05:57 17.2 °C 16.4 °C 1018.8 hPa West 8.0 km/h 14.5 km/h 95 % 0.8 mm
06:02 16.1 °C 14.5 °C 1019.5 hPa NNW 11.3 km/h 33.8 km/h 90 % 1.3 mm
06:12 14.8 °C 13.8 °C 1019.9 hPa NW 9.7 km/h 33.8 km/h 94 % 2.3 mm
06:17 14.4 °C 13.4 °C 1019.9 hPa NE 12.9 km/h 19.3 km/h 94 % 3.0 mm
06:22 14.2 °C 13.2 °C 1019.9 hPa North 11.3 km/h 19.3 km/h 94 % 3.3 mm
06:27 14.1 °C 13.3 °C 1019.9 hPa NNW 6.4 km/h 19.3 km/h 95 % 3.3 mm
06:32 14.0 °C 13.2 °C 1019.9 hPa NE 12.9 km/h 19.3 km/h 95 % 3.6 mm
06:42 13.9 °C 13.1 °C 1019.9 hPa North 8.0 km/h 19.3 km/h 95 % 3.3 mm
06:47 13.8 °C 13.0 °C 1019.9 hPa North 6.4 km/h 20.9 km/h 95 % 3.3 mm
06:57 13.7 °C 13.1 °C 1020.2 hPa NNE 6.4 km/h 20.9 km/h 96 % 3.0 mm
07:02 13.7 °C 13.1 °C 1020.2 hPa NNW 8.0 km/h 16.1 km/h 96 % 2.5 mm
07:12 13.4 °C 12.8 °C 1020.2 hPa NNE 11.3 km/h 14.5 km/h 96 % 1.5 mm
07:17 13.4 °C 12.8 °C 1020.2 hPa North 16.1 km/h 20.9 km/h 96 % 1.0 mm
07:22 13.3 °C 12.7 °C 1020.2 hPa North 8.0 km/h 20.9 km/h 96 % 0.8 mm
07:32 13.3 °C 12.7 °C 1020.5 hPa NNE 6.4 km/h 20.9 km/h 96 % 0.5 mm
07:37 13.3 °C 12.7 °C 1020.5 hPa NNE 9.7 km/h 19.3 km/h 96 % 0.3 mm
07:42 13.2 °C 12.6 °C 1020.9 hPa North 11.3 km/h 16.1 km/h 96 % 0.3 mm
07:47 13.2 °C 12.4 °C 1020.9 hPa NNE 9.7 km/h 24.1 km/h 95 % 0.3 mm
07:52 13.2 °C 12.4 °C 1020.9 hPa North 14.5 km/h 24.1 km/h 95 % 0.0 mm
07:57 13.2 °C 12.4 °C 1021.2 hPa NNW 12.9 km/h 24.1 km/h 95 % 0.0 mm
08:02 13.2 °C 12.4 °C 1021.2 hPa NNE 9.7 km/h 22.5 km/h 95 % 0.0 mm
08:12 13.1 °C 12.2 °C 1021.6 hPa NNW 8.0 km/h 20.9 km/h 94 % 0.0 mm
08:17 13.1 °C 12.2 °C 1021.6 hPa North 4.8 km/h 20.9 km/h 94 % 0.0 mm
08:22 13.1 °C 12.2 °C 1021.6 hPa North 9.7 km/h 20.9 km/h 94 % 0.0 mm
08:27 13.1 °C 12.2 °C 1021.6 hPa NE 6.4 km/h 17.7 km/h 94 % 0.0 mm
08:32 13.1 °C 12.2 °C 1021.9 hPa North 11.3 km/h 17.7 km/h 94 % 0.0 mm
08:37 13.2 °C 12.3 °C 1021.9 hPa NNE 3.2 km/h 17.7 km/h 94 % 0.0 mm
08:42 13.2 °C 12.3 °C 1021.9 hPa NNE 8.0 km/h 17.7 km/h 94 % 0.0 mm
08:52 13.2 °C 12.3 °C 1022.2 hPa NNE 12.9 km/h 19.3 km/h 94 % 0.0 mm
08:57 13.2 °C 12.1 °C 1022.2 hPa North 4.8 km/h 22.5 km/h 93 % 0.0 mm
09:02 13.2 °C 12.1 °C 1022.2 hPa NNE 6.4 km/h 22.5 km/h 93 % 0.0 mm
09:07 13.3 °C 12.2 °C 1022.6 hPa NNW 6.4 km/h 22.5 km/h 93 % 0.0 mm
09:12 13.3 °C 12.2 °C 1022.2 hPa NNW 4.8 km/h 20.9 km/h 93 % 0.0 mm
09:17 13.3 °C 12.2 °C 1022.6 hPa NNW 6.4 km/h 20.9 km/h 93 % 0.0 mm
09:22 13.2 °C 11.9 °C 1022.6 hPa North 4.8 km/h 20.9 km/h 92 % 0.0 mm
09:32 13.1 °C 11.8 °C 1022.9 hPa NNE 11.3 km/h 17.7 km/h 92 % 0.0 mm
09:42 13.1 °C 11.7 °C 1023.2 hPa NNW 6.4 km/h 22.5 km/h 91 % 0.0 mm
09:47 13.2 °C 11.8 °C 1023.2 hPa NNE 4.8 km/h 24.1 km/h 91 % 0.0 mm
09:52 13.4 °C 11.8 °C 1023.2 hPa NE 9.7 km/h 24.1 km/h 90 % 0.0 mm
09:57 13.6 °C 11.6 °C 1023.2 hPa NNE 6.4 km/h 22.5 km/h 88 % 0.0 mm
10:02 13.7 °C 11.4 °C 1023.6 hPa North 16.1 km/h 16.1 km/h 86 % 0.3 mm
10:12 14.1 °C 11.8 °C 1023.6 hPa North 4.8 km/h 20.9 km/h 86 % 0.3 mm
10:17 14.1 °C 12.0 °C 1023.9 hPa NNW 14.5 km/h 20.9 km/h 87 % 0.3 mm
10:22 13.7 °C 11.4 °C 1023.9 hPa North 11.3 km/h 24.1 km/h 86 % 0.3 mm
10:32 13.6 °C 11.5 °C 1024.3 hPa NE 8.0 km/h 24.1 km/h 87 % 0.3 mm
10:37 13.8 °C 11.5 °C 1024.3 hPa North 9.7 km/h 20.9 km/h 86 % 0.3 mm
10:42 14.2 °C 11.7 °C 1023.9 hPa North 6.4 km/h 16.1 km/h 85 % 0.3 mm
10:47 14.4 °C 11.9 °C 1024.3 hPa NNW 11.3 km/h 19.3 km/h 85 % 0.3 mm
10:52 14.4 °C 11.5 °C 1024.3 hPa NNW 8.0 km/h 19.3 km/h 83 % 0.3 mm
10:57 14.3 °C 11.1 °C 1024.3 hPa NNE 9.7 km/h 19.3 km/h 81 % 0.3 mm
11:02 14.4 °C 11.4 °C 1024.3 hPa NE 6.4 km/h 22.5 km/h 82 % 0.0 mm
11:12 14.6 °C 11.2 °C 1024.3 hPa East 8.0 km/h 20.9 km/h 80 % 0.0 mm
11:17 14.5 °C 10.3 °C 1024.3 hPa NE 6.4 km/h 19.3 km/h 76 % 0.0 mm
11:22 14.6 °C 10.6 °C 1024.6 hPa NE 8.0 km/h 24.1 km/h 77 % 0.0 mm
11:27 14.7 °C 10.7 °C 1024.3 hPa North 6.4 km/h 24.1 km/h 77 % 0.0 mm
11:32 14.8 °C 10.8 °C 1024.6 hPa NE 9.7 km/h 24.1 km/h 77 % 0.0 mm
11:37 14.8 °C 11.0 °C 1024.6 hPa NNW 4.8 km/h 19.3 km/h 78 % 0.0 mm
11:42 15.0 °C 11.0 °C 1024.6 hPa NNE 11.3 km/h 19.3 km/h 77 % 0.0 mm
11:47 15.3 °C 11.1 °C 1024.6 hPa NNW 8.0 km/h 19.3 km/h 76 % 0.0 mm
11:52 15.7 °C 11.9 °C 1024.6 hPa NW 4.8 km/h 19.3 km/h 78 % 0.0 mm
11:57 15.6 °C 12.0 °C 1024.6 hPa NW 11.3 km/h 19.3 km/h 79 % 0.0 mm
12:02 15.4 °C 11.4 °C 1024.9 hPa NNW 4.8 km/h 19.3 km/h 77 % 0.0 mm
12:07 15.2 °C 11.0 °C 1024.9 hPa NNE 9.7 km/h 17.7 km/h 76 % 0.0 mm
12:12 14.8 °C 10.6 °C 1024.9 hPa NNE 3.2 km/h 17.7 km/h 76 % 0.0 mm
12:17 15.1 °C 10.9 °C 1024.9 hPa NE 6.4 km/h 16.1 km/h 76 % 0.0 mm
12:22 15.3 °C 10.9 °C 1024.9 hPa NNE 4.8 km/h 16.1 km/h 75 % 0.0 mm
12:32 15.3 °C 9.6 °C 1025.3 hPa NW 8.0 km/h 16.1 km/h 69 % 0.0 mm
12:42 15.6 °C 10.1 °C 1025.3 hPa NE 12.9 km/h 17.7 km/h 70 % 0.0 mm
12:47 15.4 °C 9.7 °C 1025.3 hPa WNW 16.1 km/h 20.9 km/h 69 % 0.0 mm
12:52 15.6 °C 10.1 °C 1025.6 hPa NNE 12.9 km/h 20.9 km/h 70 % 0.0 mm
12:57 15.8 °C 10.3 °C 1025.6 hPa NW 9.7 km/h 20.9 km/h 70 % 0.0 mm
13:02 15.6 °C 9.9 °C 1025.6 hPa NNW 9.7 km/h 19.3 km/h 69 % 0.0 mm
13:07 15.2 °C 9.3 °C 1025.6 hPa North 4.8 km/h 19.3 km/h 68 % 0.0 mm
13:12 15.3 °C 9.4 °C 1025.6 hPa North 12.9 km/h 19.3 km/h 68 % 0.0 mm
13:17 15.5 °C 9.4 °C 1025.6 hPa North 4.8 km/h 19.3 km/h 67 % 0.0 mm
13:22 15.7 °C 9.6 °C 1025.6 hPa NNE 9.7 km/h 17.7 km/h 67 % 0.0 mm
13:27 16.0 °C 9.9 °C 1025.6 hPa NNW 3.2 km/h 17.7 km/h 67 % 0.0 mm
13:32 16.2 °C 9.6 °C 1025.6 hPa NNW 14.5 km/h 25.7 km/h 65 % 0.0 mm
13:37 15.8 °C 9.2 °C 1025.6 hPa NE 9.7 km/h 25.7 km/h 65 % 0.0 mm
13:42 15.5 °C 9.2 °C 1026.0 hPa NW 3.2 km/h 25.7 km/h 66 % 0.0 mm
13:52 15.9 °C 9.3 °C 1025.6 hPa NNE 8.0 km/h 17.7 km/h 65 % 0.0 mm
13:57 16.0 °C 9.4 °C 1025.6 hPa Calm   12.9 km/h 65 % 0.0 mm
14:02 16.4 °C 10.3 °C 1025.6 hPa NNW 16.1 km/h 20.9 km/h 67 % 0.0 mm
14:12 15.5 °C 8.9 °C 1025.6 hPa NNE 9.7 km/h 22.5 km/h 65 % 0.0 mm
14:17 15.8 °C 10.1 °C 1025.6 hPa North 6.4 km/h 22.5 km/h 69 % 0.0 mm
14:22 15.9 °C 9.1 °C 1025.6 hPa NNE 4.8 km/h 16.1 km/h 64 % 0.0 mm
14:27 16.1 °C 8.8 °C 1025.6 hPa NNW 9.7 km/h 17.7 km/h 62 % 0.0 mm
14:32 16.2 °C 9.4 °C 1025.3 hPa NNW 3.2 km/h 19.3 km/h 64 % 0.0 mm
14:42 16.7 °C 9.9 °C 1025.3 hPa NNE 8.0 km/h 19.3 km/h 64 % 0.0 mm
14:47 16.3 °C 10.2 °C 1025.3 hPa NNW 11.3 km/h 16.1 km/h 67 % 0.0 mm
14:52 16.1 °C 9.7 °C 1025.3 hPa NE 14.5 km/h 16.1 km/h 66 % 0.0 mm
14:57 15.9 °C 8.6 °C 1025.3 hPa NE 9.7 km/h 16.1 km/h 62 % 0.0 mm
15:02 16.0 °C 8.7 °C 1025.3 hPa NNE 9.7 km/h 14.5 km/h 62 % 0.0 mm
15:07 15.9 °C 8.9 °C 1025.3 hPa NNW 3.2 km/h 14.5 km/h 63 % 0.0 mm
15:12 16.2 °C 8.9 °C 1025.3 hPa NNW 4.8 km/h 14.5 km/h 62 % 0.0 mm
15:22 16.8 °C 10.0 °C 1025.3 hPa NNE 16.1 km/h 16.1 km/h 64 % 0.0 mm
15:27 16.2 °C 8.9 °C 1025.3 hPa NNE 8.0 km/h 20.9 km/h 62 % 0.0 mm
15:32 15.9 °C 8.9 °C 1025.3 hPa NNW 4.8 km/h 20.9 km/h 63 % 0.0 mm
15:37 15.9 °C 9.1 °C 1025.3 hPa ENE 6.4 km/h 20.9 km/h 64 % 0.0 mm
15:42 16.3 °C 8.8 °C 1025.3 hPa NNE 1.6 km/h 16.1 km/h 61 % 0.0 mm
15:47 16.6 °C 9.0 °C 1024.9 hPa NNE 8.0 km/h 14.5 km/h 61 % 0.0 mm
15:52 16.6 °C 9.0 °C 1025.3 hPa NNW 4.8 km/h 12.9 km/h 61 % 0.0 mm
15:57 16.6 °C 9.0 °C 1025.3 hPa NW 6.4 km/h 16.1 km/h 61 % 0.0 mm
16:02 16.6 °C 8.6 °C 1025.3 hPa NNW 3.2 km/h 16.1 km/h 59 % 0.0 mm
16:07 16.7 °C 9.1 °C 1025.3 hPa NE 8.0 km/h 16.1 km/h 61 % 0.0 mm
16:12 16.8 °C 9.5 °C 1025.3 hPa NNE 6.4 km/h 14.5 km/h 62 % 0.0 mm
16:17 16.5 °C 9.4 °C 1025.3 hPa North 8.0 km/h 14.5 km/h 63 % 0.0 mm
16:22 16.3 °C 9.2 °C 1025.3 hPa NNW 1.6 km/h 14.5 km/h 63 % 0.0 mm
16:27 16.1 °C 9.1 °C 1025.3 hPa North 1.6 km/h 14.5 km/h 63 % 0.0 mm
16:32 16.1 °C 8.8 °C 1025.3 hPa Calm   12.9 km/h 62 % 0.0 mm
16:37 16.3 °C 8.8 °C 1025.3 hPa North 3.2 km/h 11.3 km/h 61 % 0.0 mm
16:47 17.0 °C 8.9 °C 1025.3 hPa North 1.6 km/h 4.8 km/h 59 % 0.0 mm
16:52 17.1 °C 8.8 °C 1025.3 hPa NNE 6.4 km/h 8.0 km/h 58 % 0.0 mm
16:57 16.9 °C 8.6 °C 1025.6 hPa NE 6.4 km/h 12.9 km/h 58 % 0.0 mm
17:02 16.8 °C 9.5 °C 1025.6 hPa NE 4.8 km/h 12.9 km/h 62 % 0.0 mm
17:07 16.6 °C 9.3 °C 1026.0 hPa NNE 6.4 km/h 16.1 km/h 62 % 0.0 mm
17:12 16.3 °C 9.7 °C 1026.0 hPa NNE 6.4 km/h 16.1 km/h 65 % 0.0 mm
17:17 16.2 °C 9.8 °C 1026.0 hPa North 6.4 km/h 12.9 km/h 66 % 0.0 mm
17:22 15.9 °C 9.3 °C 1026.0 hPa NE 3.2 km/h 12.9 km/h 65 % 0.0 mm
17:27 15.9 °C 9.8 °C 1026.0 hPa NE 1.6 km/h 9.7 km/h 67 % 0.0 mm
17:32 16.1 °C 9.3 °C 1026.0 hPa NE 1.6 km/h 6.4 km/h 64 % 0.0 mm
17:37 16.3 °C 9.2 °C 1026.0 hPa NE 4.8 km/h 8.0 km/h 63 % 0.0 mm
17:47 16.7 °C 8.6 °C 1026.0 hPa NNE 3.2 km/h 6.4 km/h 59 % 0.0 mm
17:52 16.8 °C 9.0 °C 1026.3 hPa NW 9.7 km/h 9.7 km/h 60 % 0.0 mm
17:57 16.6 °C 9.0 °C 1026.3 hPa NNW 6.4 km/h 11.3 km/h 61 % 0.0 mm
18:02 16.5 °C 9.4 °C 1026.0 hPa NE 4.8 km/h 11.3 km/h 63 % 0.0 mm
18:12 16.6 °C 9.0 °C 1026.3 hPa NNW 6.4 km/h 9.7 km/h 61 % 0.0 mm
18:17 16.6 °C 8.8 °C 1026.3 hPa NNE 4.8 km/h 9.7 km/h 60 % 0.0 mm
18:27 16.7 °C 8.9 °C 1026.3 hPa NE 6.4 km/h 9.7 km/h 60 % 0.0 mm
18:32 16.6 °C 9.0 °C 1026.3 hPa NNE 6.4 km/h 8.0 km/h 61 % 0.0 mm
18:42 16.2 °C 8.9 °C 1026.3 hPa NE 1.6 km/h 9.7 km/h 62 % 0.0 mm
18:47 16.1 °C 9.1 °C 1026.3 hPa NE 4.8 km/h 9.7 km/h 63 % 0.0 mm
18:57 15.7 °C 9.1 °C 1026.3 hPa Calm   4.8 km/h 65 % 0.0 mm
19:07 15.3 °C 8.8 °C 1026.3 hPa Calm   3.2 km/h 65 % 0.0 mm
19:12 15.2 °C 8.9 °C 1026.0 hPa Calm   3.2 km/h 66 % 0.0 mm
19:22 14.8 °C 10.0 °C 1026.0 hPa Calm   1.6 km/h 73 % 0.0 mm
19:27 14.3 °C 9.7 °C 1026.3 hPa Calm   1.6 km/h 74 % 0.0 mm
19:32 13.8 °C 9.4 °C 1026.0 hPa Calm   1.6 km/h 75 % 0.0 mm
19:37 13.6 °C 9.6 °C 1026.0 hPa NW 1.6 km/h 1.6 km/h 77 % 0.0 mm
19:42 13.1 °C 9.0 °C 1026.3 hPa WNW 3.2 km/h 3.2 km/h 76 % 0.0 mm
19:47 12.7 °C 9.3 °C 1026.3 hPa WNW 1.6 km/h 3.2 km/h 80 % 0.0 mm
19:52 12.3 °C 8.9 °C 1026.3 hPa Calm   3.2 km/h 80 % 0.0 mm
19:57 12.4 °C 8.9 °C 1026.3 hPa Calm   3.2 km/h 79 % 0.0 mm
20:02 12.3 °C 8.8 °C 1026.3 hPa Calm   3.2 km/h 79 % 0.0 mm
20:07 12.1 °C 9.1 °C 1026.3 hPa Calm   1.6 km/h 82 % 0.0 mm
20:12 12.1 °C 9.3 °C 1026.3 hPa WNW 1.6 km/h 1.6 km/h 83 % 0.0 mm
20:17 11.7 °C 9.1 °C 1026.6 hPa Calm   3.2 km/h 84 % 0.0 mm
20:22 11.6 °C 9.2 °C 1026.6 hPa Calm   3.2 km/h 85 % 0.0 mm
20:27 11.4 °C 9.1 °C 1026.6 hPa Calm   3.2 km/h 86 % 0.0 mm
20:32 11.4 °C 9.3 °C 1026.6 hPa NNW 1.6 km/h 3.2 km/h 87 % 0.0 mm
20:37 11.4 °C 9.1 °C 1026.6 hPa North 1.6 km/h 3.2 km/h 86 % 0.0 mm
20:42 11.4 °C 9.3 °C 1026.6 hPa Calm   3.2 km/h 87 % 0.0 mm
20:47 11.3 °C 9.2 °C 1027.0 hPa Calm   1.6 km/h 87 % 0.0 mm
20:52 11.1 °C 9.0 °C 1026.6 hPa Calm   1.6 km/h 87 % 0.0 mm
20:57 10.8 °C 8.9 °C 1026.6 hPa Calm   1.6 km/h 88 % 0.0 mm
21:02 10.6 °C 8.9 °C 1027.0 hPa Calm   1.6 km/h 89 % 0.0 mm
21:07 10.5 °C 8.8 °C 1027.0 hPa Calm   1.6 km/h 89 % 0.0 mm
21:12 10.4 °C 8.7 °C 1027.0 hPa Calm   1.6 km/h 89 % 0.0 mm
21:17 10.3 °C 8.7 °C 1027.0 hPa Calm   1.6 km/h 90 % 0.0 mm
21:27 10.1 °C 8.5 °C 1027.3 hPa NW 1.6 km/h 1.6 km/h 90 % 0.0 mm
21:32 10.4 °C 8.7 °C 1027.3 hPa NW 4.8 km/h 4.8 km/h 89 % 0.0 mm
21:42 10.8 °C 8.6 °C 1027.7 hPa NW 3.2 km/h 4.8 km/h 86 % 0.0 mm
21:47 10.8 °C 8.6 °C 1027.7 hPa NNW 1.6 km/h 4.8 km/h 86 % 0.0 mm
21:52 10.8 °C 8.6 °C 1027.7 hPa NW 3.2 km/h 4.8 km/h 86 % 0.0 mm
21:57 10.8 °C 8.6 °C 1027.7 hPa NW 3.2 km/h 4.8 km/h 86 % 0.0 mm
22:02 10.9 °C 8.5 °C 1027.7 hPa NW 1.6 km/h 4.8 km/h 85 % 0.0 mm
22:07 10.9 °C 8.5 °C 1027.7 hPa NNW 1.6 km/h 4.8 km/h 85 % 0.0 mm
22:12 10.9 °C 8.5 °C 1027.7 hPa NNW 1.6 km/h 3.2 km/h 85 % 0.0 mm
22:17 10.8 °C 8.4 °C 1027.7 hPa NNW 1.6 km/h 3.2 km/h 85 % 0.0 mm
22:22 10.9 °C 8.5 °C 1027.7 hPa Calm   4.8 km/h 85 % 0.0 mm
22:27 10.9 °C 8.3 °C 1027.7 hPa WNW 3.2 km/h 4.8 km/h 84 % 0.0 mm
22:32 10.9 °C 8.3 °C 1027.7 hPa Calm   4.8 km/h 84 % 0.0 mm
22:37 10.9 °C 8.3 °C 1027.7 hPa WNW 1.6 km/h 3.2 km/h 84 % 0.0 mm
22:47 9.9 °C 8.0 °C 1028.0 hPa WNW 1.6 km/h 3.2 km/h 88 % 0.0 mm
22:52 10.0 °C 8.1 °C 1028.0 hPa Calm   3.2 km/h 88 % 0.0 mm
22:57 10.0 °C 8.1 °C 1028.0 hPa Calm   3.2 km/h 88 % 0.0 mm
23:02 9.8 °C 7.9 °C 1028.0 hPa Calm   1.6 km/h 88 % 0.0 mm
23:07 9.7 °C 8.0 °C 1028.0 hPa Calm   1.6 km/h 89 % 0.0 mm
23:12 9.6 °C 7.9 °C 1028.0 hPa WNW 1.6 km/h 1.6 km/h 89 % 0.0 mm
23:17 9.5 °C 7.9 °C 1028.0 hPa Calm   3.2 km/h 90 % 0.0 mm
23:27 9.4 °C 8.0 °C 1028.0 hPa WNW 1.6 km/h 1.6 km/h 91 % 0.0 mm
23:32 9.5 °C 7.9 °C 1028.0 hPa WNW 1.6 km/h 1.6 km/h 90 % 0.0 mm
23:37 9.4 °C 7.8 °C 1028.0 hPa Calm   1.6 km/h 90 % 0.0 mm
23:42 9.4 °C 7.8 °C 1028.3 hPa WNW 1.6 km/h 1.6 km/h 90 % 0.0 mm
23:47 9.4 °C 8.0 °C 1028.3 hPa Calm   1.6 km/h 91 % 0.0 mm
23:52 9.4 °C 7.8 °C 1028.0 hPa WNW 1.6 km/h 1.6 km/h 90 % 0.0 mm
23:57 9.4 °C 7.8 °C 1028.0 hPa Calm   1.6 km/h 90 % 0.0 mm
Meteo18
Compliments of Weather Underground - 4 mb

Script developed by  Jim McMurry - jmcmurry@mwt.net Adapted for the template by  Wim van der Kuil - Leuven-Template.eu

You find our weather info also at:

European Weather Network

Weather Underground

Equipment we use:

Weather-station
Davis Vue

Weather-program
Meteohub

Weather-server
Raspberry PI 2 B+

Provider
1 and 1

Davis Vue

Meteohub

Raspberry PI 2 B+

1 and 1